sensor_id;sensor_type;location;lat;lon;timestamp;pressure;altitude;pressure_sealevel;temperature;humidity
9717;BME280;4897;43.570;27.832;2023-03-01T00:00:59;100070.91;;;5.25;100.00
9717;BME280;4897;43.570;27.832;2023-03-01T00:03:26;100060.03;;;5.12;100.00
9717;BME280;4897;43.570;27.832;2023-03-01T00:05:53;100076.31;;;5.23;100.00
9717;BME280;4897;43.570;27.832;2023-03-01T00:08:21;100062.81;;;5.09;100.00
9717;BME280;4897;43.570;27.832;2023-03-01T00:10:48;100062.97;;;5.25;100.00
9717;BME280;4897;43.570;27.832;2023-03-01T00:13:15;100058.25;;;5.13;100.00
9717;BME280;4897;43.570;27.832;2023-03-01T00:15:42;100059.22;;;5.29;100.00
9717;BME280;4897;43.570;27.832;2023-03-01T00:18:09;100055.78;;;5.27;100.00
9717;BME280;4897;43.570;27.832;2023-03-01T00:20:36;100044.00;;;5.32;100.00
9717;BME280;4897;43.570;27.832;2023-03-01T00:23:02;99974.69;;;4.87;100.00
9717;BME280;4897;43.570;27.832;2023-03-01T00:25:31;100061.44;;;5.38;100.00
9717;BME280;4897;43.570;27.832;2023-03-01T00:27:57;100045.97;;;5.29;100.00
9717;BME280;4897;43.570;27.832;2023-03-01T00:30:24;100049.31;;;5.32;100.00
9717;BME280;4897;43.570;27.832;2023-03-01T00:32:51;100035.28;;;5.30;100.00
9717;BME280;4897;43.570;27.832;2023-03-01T00:35:18;100045.88;;;5.30;100.00
9717;BME280;4897;43.570;27.832;2023-03-01T00:37:45;100042.00;;;5.37;100.00
9717;BME280;4897;43.570;27.832;2023-03-01T00:40:12;100014.66;;;5.18;100.00
9717;BME280;4897;43.570;27.832;2023-03-01T00:42:43;100032.16;;;5.39;100.00
9717;BME280;4897;43.570;27.832;2023-03-01T00:45:10;100023.44;;;5.37;100.00
9717;BME280;4897;43.570;27.832;2023-03-01T00:47:38;100044.22;;;5.28;100.00
9717;BME280;4897;43.570;27.832;2023-03-01T00:50:06;100023.88;;;5.28;100.00
9717;BME280;4897;43.570;27.832;2023-03-01T00:52:33;100029.34;;;5.25;100.00
9717;BME280;4897;43.570;27.832;2023-03-01T00:54:59;100018.19;;;5.19;100.00
9717;BME280;4897;43.570;27.832;2023-03-01T00:57:26;100024.66;;;5.30;100.00
9717;BME280;4897;43.570;27.832;2023-03-01T00:59:55;100008.44;;;5.19;100.00
9717;BME280;4897;43.570;27.832;2023-03-01T01:02:22;100023.19;;;5.25;100.00
9717;BME280;4897;43.570;27.832;2023-03-01T01:04:49;100026.19;;;5.36;100.00
9717;BME280;4897;43.570;27.832;2023-03-01T01:07:16;100022.75;;;5.34;100.00
9717;BME280;4897;43.570;27.832;2023-03-01T01:09:45;100017.03;;;5.24;100.00
9717;BME280;4897;43.570;27.832;2023-03-01T01:12:13;100032.31;;;5.36;100.00
9717;BME280;4897;43.570;27.832;2023-03-01T01:14:40;100029.13;;;5.30;100.00
9717;BME280;4897;43.570;27.832;2023-03-01T01:17:08;100017.03;;;5.24;100.00
9717;BME280;4897;43.570;27.832;2023-03-01T01:19:35;100021.19;;;5.30;100.00
9717;BME280;4897;43.570;27.832;2023-03-01T01:22:03;100015.63;;;5.34;100.00
9717;BME280;4897;43.570;27.832;2023-03-01T01:24:29;100022.78;;;5.32;100.00
9717;BME280;4897;43.570;27.832;2023-03-01T01:26:56;100033.34;;;5.34;100.00
9717;BME280;4897;43.570;27.832;2023-03-01T01:29:23;100015.06;;;5.28;100.00
9717;BME280;4897;43.570;27.832;2023-03-01T01:31:50;100005.53;;;5.24;100.00
9717;BME280;4897;43.570;27.832;2023-03-01T01:34:21;100000.81;;;5.30;100.00
9717;BME280;4897;43.570;27.832;2023-03-01T01:36:49;100008.94;;;5.27;100.00
9717;BME280;4897;43.570;27.832;2023-03-01T01:39:16;100005.84;;;5.18;100.00
9717;BME280;4897;43.570;27.832;2023-03-01T01:41:43;100011.34;;;5.32;100.00
9717;BME280;4897;43.570;27.832;2023-03-01T01:44:13;99969.28;;;5.07;100.00
9717;BME280;4897;43.570;27.832;2023-03-01T01:46:41;99966.06;;;5.01;100.00
9717;BME280;4897;43.570;27.832;2023-03-01T01:49:19;100002.06;;;5.23;100.00
9717;BME280;4897;43.570;27.832;2023-03-01T01:51:50;99980.50;;;5.12;100.00
9717;BME280;4897;43.570;27.832;2023-03-01T01:54:21;100013.88;;;5.16;100.00
9717;BME280;4897;43.570;27.832;2023-03-01T01:56:54;100007.03;;;5.12;100.00
9717;BME280;4897;43.570;27.832;2023-03-01T01:59:23;99992.50;;;5.02;100.00
9717;BME280;4897;43.570;27.832;2023-03-01T02:01:51;100011.25;;;5.16;100.00
9717;BME280;4897;43.570;27.832;2023-03-01T02:04:19;99941.69;;;4.58;100.00
9717;BME280;4897;43.570;27.832;2023-03-01T02:06:49;100005.16;;;5.14;100.00
9717;BME280;4897;43.570;27.832;2023-03-01T02:09:18;99999.84;;;5.14;100.00
9717;BME280;4897;43.570;27.832;2023-03-01T02:11:47;100013.44;;;5.25;100.00
9717;BME280;4897;43.570;27.832;2023-03-01T02:14:15;100009.84;;;5.26;100.00
9717;BME280;4897;43.570;27.832;2023-03-01T02:16:42;100011.16;;;5.18;100.00
9717;BME280;4897;43.570;27.832;2023-03-01T02:19:16;99962.41;;;5.03;100.00
9717;BME280;4897;43.570;27.832;2023-03-01T02:21:53;99968.91;;;5.15;100.00
9717;BME280;4897;43.570;27.832;2023-03-01T02:24:31;99971.13;;;4.88;100.00
9717;BME280;4897;43.570;27.832;2023-03-01T02:27:03;100004.59;;;5.08;100.00
9717;BME280;4897;43.570;27.832;2023-03-01T02:29:31;100007.16;;;5.09;100.00
9717;BME280;4897;43.570;27.832;2023-03-01T02:32:00;100004.97;;;5.00;100.00
9717;BME280;4897;43.570;27.832;2023-03-01T02:34:30;100000.06;;;5.10;100.00
9717;BME280;4897;43.570;27.832;2023-03-01T02:37:01;99989.13;;;5.17;100.00
9717;BME280;4897;43.570;27.832;2023-03-01T02:39:33;99955.94;;;4.92;100.00
9717;BME280;4897;43.570;27.832;2023-03-01T02:42:02;99979.72;;;5.10;100.00
9717;BME280;4897;43.570;27.832;2023-03-01T02:44:32;99985.81;;;5.12;100.00
9717;BME280;4897;43.570;27.832;2023-03-01T02:47:01;99962.72;;;4.97;100.00
9717;BME280;4897;43.570;27.832;2023-03-01T02:49:31;99964.28;;;5.01;100.00
9717;BME280;4897;43.570;27.832;2023-03-01T02:55:03;99955.06;;;4.91;100.00
9717;BME280;4897;43.570;27.832;2023-03-01T02:57:34;99960.53;;;4.88;100.00
9717;BME280;4897;43.570;27.832;2023-03-01T03:00:05;99937.59;;;4.87;100.00
9717;BME280;4897;43.570;27.832;2023-03-01T03:02:34;99956.63;;;4.95;100.00
9717;BME280;4897;43.570;27.832;2023-03-01T03:05:07;99961.00;;;4.96;100.00
9717;BME280;4897;43.570;27.832;2023-03-01T03:07:35;99967.09;;;4.98;100.00
9717;BME280;4897;43.570;27.832;2023-03-01T03:10:04;99956.19;;;5.04;100.00
9717;BME280;4897;43.570;27.832;2023-03-01T03:12:31;99960.47;;;5.07;100.00
9717;BME280;4897;43.570;27.832;2023-03-01T03:14:58;99978.16;;;5.06;100.00
9717;BME280;4897;43.570;27.832;2023-03-01T03:17:26;99966.91;;;5.01;100.00
9717;BME280;4897;43.570;27.832;2023-03-01T03:19:53;99969.53;;;5.03;100.00
9717;BME280;4897;43.570;27.832;2023-03-01T03:22:20;99978.25;;;5.05;100.00
9717;BME280;4897;43.570;27.832;2023-03-01T03:24:47;99980.81;;;5.06;100.00
9717;BME280;4897;43.570;27.832;2023-03-01T03:27:13;99967.47;;;5.08;100.00
9717;BME280;4897;43.570;27.832;2023-03-01T03:29:40;99968.50;;;5.05;100.00
9717;BME280;4897;43.570;27.832;2023-03-01T03:32:07;99979.09;;;5.05;100.00
9717;BME280;4897;43.570;27.832;2023-03-01T03:34:35;99982.38;;;5.10;100.00
9717;BME280;4897;43.570;27.832;2023-03-01T03:37:02;99986.25;;;5.03;100.00
9717;BME280;4897;43.570;27.832;2023-03-01T03:39:49;99991.34;;;5.08;100.00
9717;BME280;4897;43.570;27.832;2023-03-01T03:42:20;99990.88;;;5.00;100.00
9717;BME280;4897;43.570;27.832;2023-03-01T03:44:47;99981.72;;;4.88;100.00
9717;BME280;4897;43.570;27.832;2023-03-01T03:47:14;99978.84;;;4.93;100.00
9717;BME280;4897;43.570;27.832;2023-03-01T03:49:42;99957.38;;;4.80;100.00
9717;BME280;4897;43.570;27.832;2023-03-01T03:52:09;99982.78;;;5.03;100.00
9717;BME280;4897;43.570;27.832;2023-03-01T03:54:39;99978.78;;;5.11;100.00
9717;BME280;4897;43.570;27.832;2023-03-01T03:57:06;99965.63;;;5.10;100.00
9717;BME280;4897;43.570;27.832;2023-03-01T03:59:33;99980.38;;;5.15;100.00
9717;BME280;4897;43.570;27.832;2023-03-01T04:02:00;99978.00;;;5.09;100.00
9717;BME280;4897;43.570;27.832;2023-03-01T04:04:27;99970.31;;;5.05;100.00
9717;BME280;4897;43.570;27.832;2023-03-01T04:06:55;99972.22;;;5.01;100.00
9717;BME280;4897;43.570;27.832;2023-03-01T04:09:22;99970.22;;;5.06;100.00
9717;BME280;4897;43.570;27.832;2023-03-01T04:11:49;99972.47;;;5.14;100.00
9717;BME280;4897;43.570;27.832;2023-03-01T04:14:15;99963.13;;;5.07;100.00
9717;BME280;4897;43.570;27.832;2023-03-01T04:16:42;99975.44;;;5.08;100.00
9717;BME280;4897;43.570;27.832;2023-03-01T04:19:09;99948.97;;;4.89;100.00
9717;BME280;4897;43.570;27.832;2023-03-01T04:21:36;99959.94;;;5.00;100.00
9717;BME280;4897;43.570;27.832;2023-03-01T04:24:05;99964.25;;;4.84;100.00
9717;BME280;4897;43.570;27.832;2023-03-01T04:26:32;99950.06;;;4.85;100.00
9717;BME280;4897;43.570;27.832;2023-03-01T04:28:59;99949.91;;;4.71;100.00
9717;BME280;4897;43.570;27.832;2023-03-01T04:31:25;99943.81;;;4.69;100.00
9717;BME280;4897;43.570;27.832;2023-03-01T04:33:55;99957.06;;;4.86;100.00
9717;BME280;4897;43.570;27.832;2023-03-01T04:36:24;99959.59;;;4.89;100.00
9717;BME280;4897;43.570;27.832;2023-03-01T04:38:51;99960.75;;;4.83;100.00
9717;BME280;4897;43.570;27.832;2023-03-01T04:41:21;99952.34;;;4.93;100.00
9717;BME280;4897;43.570;27.832;2023-03-01T04:43:48;99937.25;;;4.76;100.00
9717;BME280;4897;43.570;27.832;2023-03-01T04:46:18;99965.38;;;4.97;100.00
9717;BME280;4897;43.570;27.832;2023-03-01T04:48:45;99955.78;;;5.12;100.00
9717;BME280;4897;43.570;27.832;2023-03-01T04:51:13;99963.50;;;4.99;100.00
9717;BME280;4897;43.570;27.832;2023-03-01T04:53:41;99965.66;;;4.91;100.00
9717;BME280;4897;43.570;27.832;2023-03-01T04:56:08;99973.41;;;4.96;100.00
9717;BME280;4897;43.570;27.832;2023-03-01T04:58:36;99882.50;;;4.41;100.00
9717;BME280;4897;43.570;27.832;2023-03-01T05:01:08;99880.59;;;4.44;100.00
9717;BME280;4897;43.570;27.832;2023-03-01T05:03:40;99955.94;;;4.92;100.00
9717;BME280;4897;43.570;27.832;2023-03-01T05:06:07;99952.03;;;4.99;100.00
9717;BME280;4897;43.570;27.832;2023-03-01T05:08:34;99963.34;;;5.02;100.00
9717;BME280;4897;43.570;27.832;2023-03-01T05:11:03;99974.00;;;5.01;100.00
9717;BME280;4897;43.570;27.832;2023-03-01T05:13:31;99984.25;;;5.08;100.00
9717;BME280;4897;43.570;27.832;2023-03-01T05:16:01;99968.66;;;5.02;100.00
9717;BME280;4897;43.570;27.832;2023-03-01T05:18:29;99963.81;;;4.93;100.00
9717;BME280;4897;43.570;27.832;2023-03-01T05:21:06;99972.09;;;5.04;100.00
9717;BME280;4897;43.570;27.832;2023-03-01T05:23:33;99947.81;;;4.95;100.00
9717;BME280;4897;43.570;27.832;2023-03-01T05:26:02;99963.50;;;4.99;100.00
9717;BME280;4897;43.570;27.832;2023-03-01T05:28:30;99968.00;;;4.97;100.00
9717;BME280;4897;43.570;27.832;2023-03-01T05:30:57;99970.34;;;5.03;100.00
9717;BME280;4897;43.570;27.832;2023-03-01T05:33:26;99967.94;;;4.99;100.00
9717;BME280;4897;43.570;27.832;2023-03-01T05:35:53;99973.09;;;5.02;100.00
9717;BME280;4897;43.570;27.832;2023-03-01T05:38:21;99971.91;;;5.07;100.00
9717;BME280;4897;43.570;27.832;2023-03-01T05:40:50;99966.31;;;5.13;100.00
9717;BME280;4897;43.570;27.832;2023-03-01T05:43:17;99961.81;;;5.15;100.00
9717;BME280;4897;43.570;27.832;2023-03-01T05:45:44;99956.78;;;5.09;100.00
9717;BME280;4897;43.570;27.832;2023-03-01T05:48:12;99950.72;;;5.07;100.00
9717;BME280;4897;43.570;27.832;2023-03-01T05:50:43;99958.31;;;5.15;100.00
9717;BME280;4897;43.570;27.832;2023-03-01T05:53:12;99950.41;;;5.13;100.00
9717;BME280;4897;43.570;27.832;2023-03-01T05:55:40;99972.16;;;5.20;100.00
9717;BME280;4897;43.570;27.832;2023-03-01T05:58:11;99981.94;;;5.19;100.00
9717;BME280;4897;43.570;27.832;2023-03-01T06:00:40;99969.78;;;5.15;100.00
9717;BME280;4897;43.570;27.832;2023-03-01T06:03:08;99979.19;;;5.21;100.00
9717;BME280;4897;43.570;27.832;2023-03-01T06:05:36;99963.34;;;5.36;100.00
9717;BME280;4897;43.570;27.832;2023-03-01T06:08:05;99970.06;;;5.26;100.00
9717;BME280;4897;43.570;27.832;2023-03-01T06:10:32;99942.84;;;5.06;100.00
9717;BME280;4897;43.570;27.832;2023-03-01T06:12:59;99977.56;;;5.35;100.00
9717;BME280;4897;43.570;27.832;2023-03-01T06:15:26;99977.88;;;5.29;100.00
9717;BME280;4897;43.570;27.832;2023-03-01T06:17:54;99960.41;;;5.25;100.00
9717;BME280;4897;43.570;27.832;2023-03-01T06:20:24;99981.94;;;5.36;100.00
9717;BME280;4897;43.570;27.832;2023-03-01T06:22:51;99981.00;;;5.54;100.00
9717;BME280;4897;43.570;27.832;2023-03-01T06:25:20;99975.28;;;5.62;100.00
9717;BME280;4897;43.570;27.832;2023-03-01T06:27:49;99959.94;;;5.51;100.00
9717;BME280;4897;43.570;27.832;2023-03-01T06:30:18;99985.38;;;5.55;100.00
9717;BME280;4897;43.570;27.832;2023-03-01T06:32:46;99967.28;;;5.29;100.00
9717;BME280;4897;43.570;27.832;2023-03-01T06:35:14;99979.28;;;5.36;100.00
9717;BME280;4897;43.570;27.832;2023-03-01T06:37:43;99978.81;;;5.45;100.00
9717;BME280;4897;43.570;27.832;2023-03-01T06:40:13;99976.56;;;5.38;100.00
9717;BME280;4897;43.570;27.832;2023-03-01T06:42:46;99981.88;;;5.38;100.00
9717;BME280;4897;43.570;27.832;2023-03-01T06:45:14;99977.91;;;5.46;100.00
9717;BME280;4897;43.570;27.832;2023-03-01T06:47:41;99968.66;;;5.36;100.00
9717;BME280;4897;43.570;27.832;2023-03-01T06:50:09;99981.78;;;5.56;100.00
9717;BME280;4897;43.570;27.832;2023-03-01T06:52:37;99977.72;;;5.49;100.00
9717;BME280;4897;43.570;27.832;2023-03-01T06:55:05;99915.13;;;5.13;100.00
9717;BME280;4897;43.570;27.832;2023-03-01T06:57:32;99975.47;;;5.59;100.00
9717;BME280;4897;43.570;27.832;2023-03-01T07:00:00;99958.28;;;5.66;100.00
9717;BME280;4897;43.570;27.832;2023-03-01T07:02:27;99890.97;;;5.34;100.00
9717;BME280;4897;43.570;27.832;2023-03-01T07:04:54;99969.78;;;5.84;100.00
9717;BME280;4897;43.570;27.832;2023-03-01T07:07:21;99961.72;;;5.85;100.00
9717;BME280;4897;43.570;27.832;2023-03-01T07:09:48;99956.00;;;5.93;100.00
9717;BME280;4897;43.570;27.832;2023-03-01T07:12:15;99953.53;;;5.90;100.00
9717;BME280;4897;43.570;27.832;2023-03-01T07:14:43;99958.16;;;6.02;100.00
9717;BME280;4897;43.570;27.832;2023-03-01T07:17:12;99960.00;;;6.17;100.00
9717;BME280;4897;43.570;27.832;2023-03-01T07:19:39;99955.56;;;6.17;100.00
9717;BME280;4897;43.570;27.832;2023-03-01T07:22:06;99929.75;;;6.04;100.00
9717;BME280;4897;43.570;27.832;2023-03-01T07:24:35;99965.75;;;6.25;100.00
9717;BME280;4897;43.570;27.832;2023-03-01T07:27:02;99974.91;;;6.19;100.00
9717;BME280;4897;43.570;27.832;2023-03-01T07:29:29;99962.47;;;6.20;100.00
9717;BME280;4897;43.570;27.832;2023-03-01T07:31:56;99961.75;;;6.33;100.00
9717;BME280;4897;43.570;27.832;2023-03-01T07:34:25;99956.53;;;6.32;100.00
9717;BME280;4897;43.570;27.832;2023-03-01T07:36:51;99932.16;;;6.24;100.00
9717;BME280;4897;43.570;27.832;2023-03-01T07:39:18;99963.88;;;6.42;100.00
9717;BME280;4897;43.570;27.832;2023-03-01T07:41:45;99937.75;;;6.35;100.00
9717;BME280;4897;43.570;27.832;2023-03-01T07:44:12;99959.28;;;6.46;100.00
9717;BME280;4897;43.570;27.832;2023-03-01T07:46:40;99975.22;;;6.46;100.00
9717;BME280;4897;43.570;27.832;2023-03-01T07:49:07;99966.81;;;6.38;100.00
9717;BME280;4897;43.570;27.832;2023-03-01T07:51:35;99986.00;;;6.43;100.00
9717;BME280;4897;43.570;27.832;2023-03-01T07:54:02;99961.22;;;6.27;100.00
9717;BME280;4897;43.570;27.832;2023-03-01T07:56:29;99972.28;;;6.35;100.00
9717;BME280;4897;43.570;27.832;2023-03-01T07:58:56;99977.06;;;6.28;100.00
9717;BME280;4897;43.570;27.832;2023-03-01T08:01:25;99960.06;;;6.15;100.00
9717;BME280;4897;43.570;27.832;2023-03-01T08:03:52;99969.34;;;6.24;100.00
9717;BME280;4897;43.570;27.832;2023-03-01T08:06:19;99903.53;;;5.98;100.00
9717;BME280;4897;43.570;27.832;2023-03-01T08:08:47;99962.19;;;6.41;100.00
9717;BME280;4897;43.570;27.832;2023-03-01T08:11:15;99960.13;;;6.62;100.00
9717;BME280;4897;43.570;27.832;2023-03-01T08:13:42;99963.88;;;6.58;100.00
9717;BME280;4897;43.570;27.832;2023-03-01T08:16:11;99951.47;;;6.59;100.00
9717;BME280;4897;43.570;27.832;2023-03-01T08:18:38;99948.09;;;6.55;100.00
9717;BME280;4897;43.570;27.832;2023-03-01T08:21:07;99944.84;;;6.66;100.00
9717;BME280;4897;43.570;27.832;2023-03-01T08:23:35;99958.84;;;6.69;100.00
9717;BME280;4897;43.570;27.832;2023-03-01T08:26:08;99945.91;;;6.63;100.00
9717;BME280;4897;43.570;27.832;2023-03-01T08:28:36;99970.59;;;6.65;100.00
9717;BME280;4897;43.570;27.832;2023-03-01T08:31:04;99984.88;;;6.47;100.00
9717;BME280;4897;43.570;27.832;2023-03-01T08:33:39;99959.94;;;6.34;100.00
9717;BME280;4897;43.570;27.832;2023-03-01T08:36:06;99951.22;;;6.32;100.00
9717;BME280;4897;43.570;27.832;2023-03-01T08:38:34;99931.47;;;6.20;100.00
9717;BME280;4897;43.570;27.832;2023-03-01T08:41:01;99939.19;;;6.25;100.00
9717;BME280;4897;43.570;27.832;2023-03-01T08:43:29;99968.22;;;6.28;100.00
9717;BME280;4897;43.570;27.832;2023-03-01T08:45:57;99963.63;;;6.31;100.00
9717;BME280;4897;43.570;27.832;2023-03-01T08:48:24;99961.13;;;6.13;100.00
9717;BME280;4897;43.570;27.832;2023-03-01T08:50:51;99965.84;;;6.23;100.00
9717;BME280;4897;43.570;27.832;2023-03-01T08:53:18;99966.25;;;6.16;100.00
9717;BME280;4897;43.570;27.832;2023-03-01T08:55:45;99953.38;;;6.08;100.00
9717;BME280;4897;43.570;27.832;2023-03-01T08:58:12;99925.19;;;5.90;100.00
9717;BME280;4897;43.570;27.832;2023-03-01T09:00:40;99940.03;;;6.10;100.00
9717;BME280;4897;43.570;27.832;2023-03-01T09:03:07;99969.41;;;6.07;100.00
9717;BME280;4897;43.570;27.832;2023-03-01T09:05:36;99948.16;;;6.07;100.00
9717;BME280;4897;43.570;27.832;2023-03-01T09:08:03;99951.59;;;6.09;100.00
9717;BME280;4897;43.570;27.832;2023-03-01T09:10:30;99939.16;;;6.09;100.00
9717;BME280;4897;43.570;27.832;2023-03-01T09:12:57;99942.59;;;6.11;100.00
9717;BME280;4897;43.570;27.832;2023-03-01T09:15:25;99943.00;;;6.04;100.00
9717;BME280;4897;43.570;27.832;2023-03-01T09:17:53;99960.25;;;6.28;100.00
9717;BME280;4897;43.570;27.832;2023-03-01T09:20:20;99875.34;;;5.95;100.00
9717;BME280;4897;43.570;27.832;2023-03-01T09:22:47;99953.25;;;6.42;100.00
9717;BME280;4897;43.570;27.832;2023-03-01T09:25:14;99955.66;;;6.47;100.00
9717;BME280;4897;43.570;27.832;2023-03-01T09:27:41;99918.47;;;6.47;100.00
9717;BME280;4897;43.570;27.832;2023-03-01T09:30:09;99881.97;;;6.35;100.00
9717;BME280;4897;43.570;27.832;2023-03-01T09:32:36;99925.28;;;6.82;100.00
9717;BME280;4897;43.570;27.832;2023-03-01T09:35:09;99947.81;;;7.06;100.00
9717;BME280;4897;43.570;27.832;2023-03-01T09:37:36;99944.44;;;7.18;100.00
9717;BME280;4897;43.570;27.832;2023-03-01T09:40:05;99923.53;;;7.12;100.00
9717;BME280;4897;43.570;27.832;2023-03-01T09:42:36;99940.78;;;7.35;100.00
9717;BME280;4897;43.570;27.832;2023-03-01T09:45:27;99947.09;;;7.48;100.00
9717;BME280;4897;43.570;27.832;2023-03-01T09:47:56;99900.44;;;7.57;100.00
9717;BME280;4897;43.570;27.832;2023-03-01T09:50:26;99939.06;;;7.92;100.00
9717;BME280;4897;43.570;27.832;2023-03-01T09:53:00;99932.59;;;7.96;100.00
9717;BME280;4897;43.570;27.832;2023-03-01T09:55:31;99942.59;;;8.21;100.00
9717;BME280;4897;43.570;27.832;2023-03-01T09:58:06;99936.59;;;8.17;100.00
9717;BME280;4897;43.570;27.832;2023-03-01T10:00:43;99933.75;;;8.06;100.00
9717;BME280;4897;43.570;27.832;2023-03-01T10:03:15;99916.59;;;8.24;100.00
9717;BME280;4897;43.570;27.832;2023-03-01T10:05:53;99913.53;;;8.58;100.00
9717;BME280;4897;43.570;27.832;2023-03-01T10:08:30;99900.91;;;8.74;100.00
9717;BME280;4897;43.570;27.832;2023-03-01T10:11:02;99892.72;;;9.17;100.00
9717;BME280;4897;43.570;27.832;2023-03-01T10:13:34;99878.44;;;9.43;100.00
9717;BME280;4897;43.570;27.832;2023-03-01T10:16:09;99886.59;;;9.79;100.00
9717;BME280;4897;43.570;27.832;2023-03-01T10:18:40;99897.16;;;9.93;100.00
9717;BME280;4897;43.570;27.832;2023-03-01T10:21:15;99889.13;;;9.93;100.00
9717;BME280;4897;43.570;27.832;2023-03-01T10:23:43;99895.56;;;9.91;100.00
9717;BME280;4897;43.570;27.832;2023-03-01T10:26:25;99882.53;;;9.86;100.00
9717;BME280;4897;43.570;27.832;2023-03-01T10:28:59;99887.75;;;9.88;100.00
9717;BME280;4897;43.570;27.832;2023-03-01T10:31:39;99880.59;;;10.01;100.00
9717;BME280;4897;43.570;27.832;2023-03-01T10:34:11;99732.00;;;8.88;100.00
9717;BME280;4897;43.570;27.832;2023-03-01T10:36:42;99858.72;;;9.58;100.00
9717;BME280;4897;43.570;27.832;2023-03-01T10:39:17;99871.88;;;8.97;100.00
9717;BME280;4897;43.570;27.832;2023-03-01T10:41:56;99873.53;;;8.85;100.00
9717;BME280;4897;43.570;27.832;2023-03-01T10:44:42;99879.97;;;8.68;100.00
9717;BME280;4897;43.570;27.832;2023-03-01T10:47:15;99856.97;;;8.67;100.00
9717;BME280;4897;43.570;27.832;2023-03-01T10:49:57;99856.09;;;8.40;100.00
9717;BME280;4897;43.570;27.832;2023-03-01T10:52:29;99859.31;;;8.45;100.00
9717;BME280;4897;43.570;27.832;2023-03-01T10:54:58;99859.16;;;8.34;100.00
9717;BME280;4897;43.570;27.832;2023-03-01T10:57:32;99841.38;;;8.06;100.00
9717;BME280;4897;43.570;27.832;2023-03-01T11:00:15;99741.78;;;7.68;100.00
9717;BME280;4897;43.570;27.832;2023-03-01T11:02:50;99837.84;;;8.34;100.00
9717;BME280;4897;43.570;27.832;2023-03-01T11:05:21;99843.00;;;8.50;100.00
9717;BME280;4897;43.570;27.832;2023-03-01T11:07:52;99853.44;;;8.40;100.00
9717;BME280;4897;43.570;27.832;2023-03-01T11:10:22;99846.78;;;8.19;100.00
9717;BME280;4897;43.570;27.832;2023-03-01T11:12:51;99846.59;;;8.08;100.00
9717;BME280;4897;43.570;27.832;2023-03-01T11:15:26;99836.00;;;7.80;100.00
9717;BME280;4897;43.570;27.832;2023-03-01T11:17:56;99858.97;;;7.95;100.00
9717;BME280;4897;43.570;27.832;2023-03-01T11:20:29;99854.72;;;7.78;100.00
9717;BME280;4897;43.570;27.832;2023-03-01T11:23:02;99815.28;;;7.57;100.00
9717;BME280;4897;43.570;27.832;2023-03-01T11:25:33;99846.06;;;7.89;100.00
9717;BME280;4897;43.570;27.832;2023-03-01T11:28:03;99838.66;;;7.80;100.00
9717;BME280;4897;43.570;27.832;2023-03-01T11:30:34;99834.47;;;7.90;100.00
9717;BME280;4897;43.570;27.832;2023-03-01T11:33:13;99827.03;;;7.39;100.00
9717;BME280;4897;43.570;27.832;2023-03-01T11:35:45;99840.56;;;7.36;100.00
9717;BME280;4897;43.570;27.832;2023-03-01T11:38:21;99835.50;;;7.45;100.00
9717;BME280;4897;43.570;27.832;2023-03-01T11:40:53;99772.09;;;7.09;100.00
9717;BME280;4897;43.570;27.832;2023-03-01T11:43:30;99802.66;;;7.32;100.00
9717;BME280;4897;43.570;27.832;2023-03-01T11:46:36;99823.28;;;7.57;100.00
9717;BME280;4897;43.570;27.832;2023-03-01T11:49:21;99801.97;;;7.57;100.00
9717;BME280;4897;43.570;27.832;2023-03-01T11:51:57;99787.13;;;7.67;100.00
9717;BME280;4897;43.570;27.832;2023-03-01T11:54:42;99795.03;;;7.68;100.00
9717;BME280;4897;43.570;27.832;2023-03-01T11:57:18;99788.47;;;7.74;100.00
9717;BME280;4897;43.570;27.832;2023-03-01T12:00:11;99783.75;;;7.51;100.00
9717;BME280;4897;43.570;27.832;2023-03-01T12:03:14;99784.09;;;7.59;100.00
9717;BME280;4897;43.570;27.832;2023-03-01T12:05:58;99782.53;;;7.83;100.00
9717;BME280;4897;43.570;27.832;2023-03-01T12:08:35;99765.63;;;7.70;100.00
9717;BME280;4897;43.570;27.832;2023-03-01T12:11:11;99770.38;;;7.79;100.00
9717;BME280;4897;43.570;27.832;2023-03-01T12:13:59;99777.56;;;8.05;100.00
9717;BME280;4897;43.570;27.832;2023-03-01T12:16:40;99784.00;;;8.15;100.00
9717;BME280;4897;43.570;27.832;2023-03-01T12:19:24;99759.66;;;7.66;100.00
9717;BME280;4897;43.570;27.832;2023-03-01T12:22:10;99785.56;;;7.91;100.00
9717;BME280;4897;43.570;27.832;2023-03-01T12:25:07;99794.13;;;7.96;100.00
9717;BME280;4897;43.570;27.832;2023-03-01T12:30:48;99764.63;;;7.99;100.00
9717;BME280;4897;43.570;27.832;2023-03-01T12:33:28;99785.00;;;8.00;100.00
9717;BME280;4897;43.570;27.832;2023-03-01T12:36:16;99780.47;;;7.88;100.00
9717;BME280;4897;43.570;27.832;2023-03-01T12:38:59;99777.63;;;7.77;100.00
9717;BME280;4897;43.570;27.832;2023-03-01T12:41:43;99769.06;;;7.58;100.00
9717;BME280;4897;43.570;27.832;2023-03-01T12:44:24;99746.69;;;7.34;100.00
9717;BME280;4897;43.570;27.832;2023-03-01T12:47:07;99746.38;;;7.52;100.00
9717;BME280;4897;43.570;27.832;2023-03-01T12:49:40;99756.53;;;7.74;100.00
9717;BME280;4897;43.570;27.832;2023-03-01T12:52:14;99759.28;;;8.13;100.00
9717;BME280;4897;43.570;27.832;2023-03-01T12:54:44;99695.25;;;7.47;100.00
9717;BME280;4897;43.570;27.832;2023-03-01T12:57:17;99772.16;;;8.33;100.00
9717;BME280;4897;43.570;27.832;2023-03-01T13:00:06;99762.56;;;7.90;100.00
9717;BME280;4897;43.570;27.832;2023-03-01T13:02:40;99772.66;;;7.85;100.00
9717;BME280;4897;43.570;27.832;2023-03-01T13:05:24;99764.91;;;7.54;100.00
9717;BME280;4897;43.570;27.832;2023-03-01T13:07:58;99769.97;;;7.44;100.00
9717;BME280;4897;43.570;27.832;2023-03-01T13:10:33;99760.56;;;7.53;100.00
9717;BME280;4897;43.570;27.832;2023-03-01T13:13:12;99745.16;;;7.44;100.00
9717;BME280;4897;43.570;27.832;2023-03-01T13:15:41;99737.34;;;7.41;100.00
9717;BME280;4897;43.570;27.832;2023-03-01T13:18:28;99757.66;;;7.70;100.00
9717;BME280;4897;43.570;27.832;2023-03-01T13:20:56;99734.00;;;7.65;100.00
9717;BME280;4897;43.570;27.832;2023-03-01T13:23:30;99748.44;;;7.75;100.00
9717;BME280;4897;43.570;27.832;2023-03-01T13:26:15;99742.31;;;7.87;100.00
9717;BME280;4897;43.570;27.832;2023-03-01T13:32:19;99745.84;;;7.88;100.00
9717;BME280;4897;43.570;27.832;2023-03-01T13:34:48;99751.56;;;7.68;100.00
9717;BME280;4897;43.570;27.832;2023-03-01T13:37:21;99720.81;;;7.50;100.00